Latest Weather Observations for Braidwood

IDN60901

Issued at 9:51 pm EST Tuesday 21 April 2015 (issued every 10 minutes, with the page automatically refreshed every 10 minutes)

About weather observations | Map of Canberra area stations | Latest observations for Canberra area | Other Formats
Station Details ID: 069132 Name: BRAIDWOOD RACECOURSE AWS Lat: -35.43 Lon: 149.78 Height: 665.2 m
Data from the previous 72 hours. | See also: Recent months at Braidwood
Date/Time
EST
Tmp

°C
App
Tmp
°C
Dew
Point
°C
Rel
Hum
%
Delta-T

°C
Wind Press
QNH
hPa
Press
MSL
hPa
Rain
since
9 am
mm
Dir
 
Spd
km/h
Gust
km/h
Spd
kts
Gust
kts
21/09:30pm 9.7 2.9 7.5 86 1.1 S 33 50 18 27 1022.3 1021.4 2.8
21/09:22pm 9.8 3.2 7.6 86 1.1 S 32 50 17 27 1022.3 1021.4 2.8
21/09:00pm 9.2 3.0 7.8 91 0.7 S 30 43 16 23 1022.3 1021.4 2.8
21/08:30pm 8.9 2.6 7.4 90 0.7 S 30 43 16 23 1022.5 1021.6 2.8
21/08:00pm 8.8 2.2 7.6 92 0.6 S 32 41 17 22 1022.6 1021.7 2.8
21/07:30pm 8.6 2.7 7.5 93 0.5 S 28 39 15 21 1022.8 1022.0 2.8
21/07:00pm 8.6 1.9 7.4 92 0.6 S 32 41 17 22 1023.4 1022.6 2.6
21/06:30pm 8.6 1.9 7.4 92 0.6 S 32 46 17 25 1023.5 1022.7 2.6
21/06:00pm 8.7 2.3 7.1 90 0.8 S 30 43 16 23 1023.3 1022.5 2.4
21/05:30pm 8.7 2.7 7.0 89 0.8 S 28 39 15 21 1023.3 1022.5 2.2
21/05:00pm 8.8 3.1 6.9 88 0.9 S 26 35 14 19 1023.3 1022.5 2.0
21/04:30pm 9.1 2.7 6.9 86 1.1 S 30 43 16 23 1023.2 1022.4 1.8
21/04:00pm 9.7 3.6 6.8 82 1.4 S 28 43 15 23 1023.4 1022.6 1.8
21/03:30pm 9.9 3.9 7.0 82 1.4 S 28 41 15 22 1023.2 1022.4 1.8
21/03:00pm 9.6 2.6 6.7 82 1.4 SSE 33 54 18 29 1023.3 1022.5 1.8
21/02:46pm 9.5 1.4 7.1 85 1.2 SSE 39 61 21 33 1023.4 1022.6 1.8
21/02:30pm 9.7 2.5 7.5 86 1.1 SSE 35 52 19 28 1023.5 1022.7 1.6
21/02:22pm 9.9 3.1 7.5 85 1.2 SSE 33 52 18 28 1023.5 1022.7 1.6
21/02:00pm 9.5 2.7 7.6 88 0.9 SSE 33 50 18 27 1023.8 1022.9 1.6
21/01:30pm 9.8 3.4 8.4 91 0.7 SSE 32 48 17 26 1023.6 1022.8 1.6
21/01:00pm 9.6 2.7 7.2 85 1.2 SSE 33 54 18 29 1024.2 1023.4 1.2
21/12:51pm 9.4 2.4 6.8 84 1.3 S 33 54 18 29 1024.4 1023.6 1.2
21/12:30pm 9.4 2.3 6.5 82 1.4 SSE 33 50 18 27 1024.7 1023.9 1.2
21/12:00pm 9.1 1.6 6.5 84 1.2 SSE 35 50 19 27 1025.1 1024.3 1.2
21/11:37am 9.2 2.9 7.6 90 0.8 SSE 30 52 16 28 1025.5 1024.7 1.2
21/11:30am 8.7 2.8 7.3 91 0.7 SSE 28 39 15 21 1025.7 1024.9 1.2
21/11:04am 8.7 2.4 7.3 91 0.7 S 30 48 16 26 1026.1 1025.3 0.8
21/11:00am 8.6 2.3 7.2 91 0.7 S 30 39 16 21 1026.1 1025.3 0.8
21/10:30am 8.2 2.2 7.0 92 0.6 S 28 39 15 21 1026.5 1025.7 0.8
21/10:06am 8.0 2.0 6.9 93 0.5 S 28 48 15 26 1026.6 1025.8 0.6
21/10:00am 7.8 1.7 6.7 93 0.5 S 28 39 15 21 1026.7 1026.0 0.6
21/09:30am 8.0 1.9 6.6 91 0.7 S 28 39 15 21 1026.7 1026.0 0.0
21/09:00am 8.2 2.0 6.3 88 0.9 S 28 39 15 21 1026.7 1026.0 3.0
21/08:30am 7.4 1.5 6.0 91 0.7 S 26 33 14 18 1027.0 1026.2 3.0
21/08:00am 7.2 1.3 5.8 91 0.6 S 26 35 14 19 1027.0 1026.2 2.8
21/07:30am 7.3 1.0 5.6 89 0.8 S 28 39 15 21 1026.7 1026.0 2.8
21/07:00am 7.2 0.5 5.7 90 0.7 S 30 41 16 22 1026.4 1025.6 2.8
21/06:30am 7.2 0.9 5.5 89 0.8 S 28 41 15 22 1026.2 1025.4 2.6
21/06:00am 7.3 0.6 5.6 89 0.8 S 30 43 16 23 1026.2 1025.4 2.6
21/05:30am 7.1 0.5 5.9 92 0.6 S 30 37 16 20 1026.0 1025.2 2.6
21/05:00am 7.1 1.2 6.0 93 0.5 S 26 39 14 21 1026.1 1025.3 2.4
21/04:34am 7.1 0.9 6.2 94 0.4 S 28 46 15 25 1026.0 1025.2 2.2
21/04:30am 7.0 1.2 6.1 94 0.4 S 26 35 14 19 1026.1 1025.3 2.2
21/04:00am 7.0 1.5 6.1 94 0.4 S 24 35 13 19 1026.2 1025.4 1.6
21/03:30am 7.2 1.0 6.1 93 0.5 S 28 35 15 19 1026.2 1025.4 1.2
21/03:00am 7.3 0.3 5.9 91 0.7 S 32 43 17 23 1026.2 1025.4 1.0
21/02:30am 7.8 0.8 5.8 87 0.9 S 32 44 17 24 1026.3 1025.5 0.8
21/02:00am 7.7 1.0 5.7 87 0.9 S 30 43 16 23 1026.5 1025.7 0.8
21/01:30am 7.7 1.4 5.8 88 0.9 S 28 39 15 21 1027.1 1026.3 0.8
21/01:00am 7.8 1.1 5.6 86 1.0 S 30 41 16 22 1027.2 1026.4 0.8
21/12:30am 7.8 0.8 5.8 87 0.9 S 32 41 17 22 1027.3 1026.5 0.8
21/12:00am 7.5 1.3 6.0 90 0.7 S 28 41 15 22 1027.5 1026.7 0.8
 
Date/Time
EST
Tmp

°C
App
Tmp
°C
Dew
Point
°C
Rel
Hum
%
Delta-T

°C
Wind Press
QNH
hPa
Press
MSL
hPa
Rain
since
9 am
mm
Dir
 
Spd
km/h
Gust
km/h
Spd
kts
Gust
kts
20/11:30pm 7.8 1.4 5.3 84 1.2 S 28 39 15 21 1027.8 1027.0 0.8
20/11:00pm 7.7 1.4 5.7 87 0.9 S 28 37 15 20 1028.3 1027.6 0.8
20/10:30pm 8.0 0.9 5.5 84 1.2 SSE 32 46 17 25 1029.0 1028.2 0.8
20/10:00pm 8.0 0.1 6.1 88 0.9 S 37 54 20 29 1028.9 1028.1 0.8
20/09:51pm 8.0 1.1 6.3 89 0.8 S 32 54 17 29 1028.8 1028.0 0.8
20/09:30pm 8.6 1.1 6.1 84 1.2 SSE 35 46 19 25 1028.7 1027.9 0.8
20/09:00pm 8.3 1.3 5.9 85 1.1 SSE 32 44 17 24 1028.3 1027.6 0.8
20/08:30pm 8.8 0.7 5.4 79 1.6 SSE 37 56 20 30 1027.8 1027.0 0.8
20/08:05pm 8.6 1.5 5.5 81 1.5 SSE 32 52 17 28 1028.0 1027.3 0.8
20/08:00pm 8.5 0.8 5.4 81 1.4 SSE 35 52 19 28 1028.0 1027.3 0.8
20/07:43pm 9.2 1.7 4.6 73 2.1 SSE 33 54 18 29 1028.0 1027.3 0.8
20/07:30pm 9.3 0.9 3.9 69 2.5 SSE 37 52 20 28 1027.7 1026.9 0.8
20/07:00pm 9.4 0.3 4.2 70 2.4 SSE 41 61 22 33 1027.7 1026.9 0.8
20/06:33pm 9.4 0.9 5.0 74 2.1 SSE 39 61 21 33 1027.8 1027.0 0.8
20/06:30pm 9.3 0.8 5.3 76 1.9 SSE 39 52 21 28 1027.7 1026.9 0.8
20/06:19pm 9.3 1.5 5.1 75 2.0 SSE 35 57 19 31 1027.7 1026.9 0.8
20/06:00pm 9.4 1.2 4.8 73 2.1 SSE 37 48 20 26 1027.8 1027.0 0.8
20/05:30pm 9.5 1.3 4.9 73 2.1 SSE 37 61 20 33 1027.8 1027.0 0.8
20/05:05pm 9.6 1.4 4.8 72 2.2 SSE 37 56 20 30 1027.8 1027.0 0.8
20/05:00pm 9.6 0.6 4.6 71 2.3 SSE 41 57 22 31 1027.7 1026.9 0.8
20/04:43pm 9.7 1.8 4.5 70 2.4 SSE 35 57 19 31 1027.5 1026.7 0.8
20/04:30pm 9.8 1.1 4.2 68 2.6 SSE 39 56 21 30 1027.8 1027.0 0.8
20/04:17pm 9.9 1.3 4.5 69 2.5 SSE 39 59 21 32 1027.5 1026.7 0.8
20/04:00pm 10.0 2.1 4.6 69 2.5 SSE 35 50 19 27 1027.4 1026.6 0.8
20/03:30pm 10.1 2.3 5.1 71 2.4 SSE 35 52 19 28 1027.1 1026.3 0.8
20/03:02pm 10.3 1.1 5.5 72 2.3 SSE 43 63 23 34 1026.7 1026.0 0.8
20/03:00pm 10.3 0.9 5.5 72 2.3 S 44 63 24 34 1026.7 1026.0 0.8
20/02:30pm 10.8 1.6 5.3 69 2.6 SSE 43 67 23 36 1026.8 1026.1 0.8
20/02:03pm 10.5 2.0 5.1 69 2.6 SSE 39 57 21 31 1027.4 1026.6 0.8
20/02:00pm 10.3 2.2 5.1 70 2.4 SSE 37 54 20 29 1027.4 1026.6 0.8
20/01:32pm 10.6 2.1 5.2 69 2.6 SSE 39 57 21 31 1027.0 1026.2 0.8
20/01:30pm 10.8 2.4 5.6 70 2.5 SSE 39 54 21 29 1027.1 1026.3 0.8
20/01:03pm 11.0 2.2 5.5 69 2.6 S 41 59 22 32 1027.3 1026.5 0.8
20/01:00pm 10.9 1.7 5.4 69 2.6 S 43 59 23 32 1027.2 1026.4 0.8
20/12:30pm 10.8 2.1 5.8 71 2.4 SSE 41 61 22 33 1027.4 1026.6 0.8
20/12:20pm 11.2 3.2 5.9 70 2.6 S 37 59 20 32 1027.5 1026.7 0.8
20/12:00pm 10.9 3.5 6.8 76 2.0 S 35 50 19 27 1027.7 1026.9 0.8
20/11:30am 9.9 2.4 6.4 79 1.7 S 35 52 19 28 1028.5 1027.8 0.8
20/11:16am 10.0 1.9 6.9 81 1.5 S 39 61 21 33 1028.1 1027.4 0.8
20/11:00am 9.5 1.7 6.8 83 1.3 S 37 54 20 29 1028.1 1027.4 0.8
20/10:46am 9.4 2.1 7.3 87 1.0 S 35 54 19 29 1028.3 1027.6 0.8
20/10:30am 8.9 1.6 7.2 89 0.8 S 35 48 19 26 1028.8 1028.0 0.8
20/10:00am 8.6 1.7 7.1 90 0.7 S 33 44 18 24 1028.9 1028.1 0.8
20/09:30am 8.3 0.6 6.9 91 0.7 S 37 50 20 27 1028.4 1027.7 0.6
20/09:20am 7.8 0.9 6.4 91 0.7 S 32 50 17 27 1028.8 1028.0 0.6
20/09:00am 7.7 0.6 6.3 91 0.7 S 33 46 18 25 1029.0 1028.2 11.8
20/08:30am 7.2 0.9 5.7 90 0.7 S 28 41 15 22 1029.3 1028.6 11.2
20/08:00am 7.1 0.3 5.1 87 0.9 S 30 39 16 21 1028.8 1028.0 10.8
20/07:30am 7.2 1.4 4.5 83 1.2 S 24 35 13 19 1028.1 1027.4 10.8
20/07:00am 6.8 0.6 4.5 85 1.0 S 26 37 14 20 1027.7 1026.9 10.8
20/06:30am 6.5 -0.1 4.3 86 1.0 S 28 39 15 21 1027.4 1026.6 10.8
20/06:00am 6.2 -0.4 4.4 88 0.8 S 28 43 15 23 1026.7 1026.0 10.8
20/05:30am 6.3 -0.6 4.5 88 0.8 S 30 43 16 23 1026.5 1025.7 10.8
20/05:00am 6.2 0.0 4.4 88 0.8 S 26 35 14 19 1027.3 1026.5 10.8
20/04:30am 6.1 -0.9 4.3 88 0.8 S 30 43 16 23 1027.0 1026.2 10.8
20/04:00am 6.0 -0.2 4.5 90 0.7 S 26 35 14 19 1027.2 1026.4 10.8
20/03:30am 6.1 0.3 4.4 89 0.8 S 24 35 13 19 1026.7 1026.0 10.8
20/03:00am 6.0 1.1 4.3 89 0.8 S 19 26 10 14 1027.3 1026.5 10.4
20/02:30am 6.2 0.7 4.0 86 1.0 S 22 30 12 16 1027.8 1027.0 10.0
20/02:00am 6.6 1.6 3.8 82 1.2 S 19 28 10 15 1027.6 1026.8 9.6
20/01:30am 6.7 1.8 3.9 82 1.2 S 19 26 10 14 1027.7 1026.9 9.4
20/01:00am 7.0 1.5 3.8 80 1.4 S 22 33 12 18 1027.6 1026.8 9.4
20/12:30am 7.2 1.6 3.6 78 1.6 SSE 22 32 12 17 1027.8 1027.0 9.4
20/12:00am 7.2 2.1 4.2 81 1.3 S 20 33 11 18 1027.8 1027.0 9.4
 
Date/Time
EST
Tmp

°C
App
Tmp
°C
Dew
Point
°C
Rel
Hum
%
Delta-T

°C
Wind Press
QNH
hPa
Press
MSL
hPa
Rain
since
9 am
mm
Dir
 
Spd
km/h
Gust
km/h
Spd
kts
Gust
kts
19/11:30pm 7.3 2.2 4.3 81 1.4 S 20 33 11 18 1027.5 1026.7 9.4
19/11:00pm 7.5 2.5 4.6 82 1.3 S 20 32 11 17 1027.8 1027.0 9.4
19/10:30pm 7.5 2.8 5.1 85 1.1 S 19 24 10 13 1027.8 1027.0 9.4
19/10:00pm 7.5 3.3 5.5 87 0.9 S 17 24 9 13 1027.6 1026.8 9.4
19/09:30pm 7.2 3.4 5.7 90 0.7 S 15 20 8 11 1027.3 1026.5 9.4
19/09:00pm 7.7 3.8 5.5 86 1.0 S 15 22 8 12 1027.2 1026.4 9.4
19/08:30pm 7.2 4.9 5.7 90 0.7 SSE 7 9 4 5 1027.0 1026.2 9.4
19/08:00pm 7.4 5.3 5.7 89 0.8 SSE 6 9 3 5 1026.5 1025.7 9.4
19/07:30pm 7.3 5.6 5.9 91 0.7 SE 4 6 2 3 1026.3 1025.5 9.4
19/07:00pm 7.4 5.2 6.0 91 0.7 SSE 7 11 4 6 1025.6 1024.8 9.4
19/06:30pm 7.6 5.3 5.6 87 0.9 S 7 15 4 8 1025.2 1024.4 9.4
19/06:00pm 7.5 5.5 6.1 91 0.7 SSW 6 7 3 4 1024.8 1024.0 9.4
19/05:30pm 7.7 5.5 6.3 91 0.7 SSE 7 9 4 5 1024.4 1023.6 9.4
19/05:00pm 7.7 5.6 6.6 93 0.5 SE 7 11 4 6 1024.2 1023.4 9.4
19/04:30pm 7.5 4.6 6.3 92 0.6 SSE 11 19 6 10 1023.9 1023.0 9.4
19/04:00pm 7.7 3.7 6.5 92 0.6 SSE 17 22 9 12 1023.6 1022.8 9.0
19/03:30pm 7.8 3.8 6.7 93 0.5 SSE 17 24 9 13 1023.2 1022.4 8.6
19/03:00pm 7.8 3.4 6.4 91 0.7 S 19 24 10 13 1023.0 1022.2 8.0
19/02:30pm 8.0 3.5 6.8 92 0.6 S 20 28 11 15 1022.3 1021.4 7.0
19/02:00pm 8.4 4.6 7.5 94 0.4 SSE 17 28 9 15 1021.8 1021.0 6.0
19/01:30pm 8.7 4.4 7.8 94 0.4 SSE 20 28 11 15 1021.5 1020.7 5.2
19/01:00pm 9.3 5.3 8.2 93 0.5 SE 19 26 10 14 1021.1 1020.2 2.0
19/12:30pm 11.4 8.8 9.3 87 1.1 ESE 13 19 7 10 1020.3 1019.5 0.8
19/12:00pm 14.4 13.4 8.8 69 2.9 NNE 4 7 2 4 1020.2 1019.4 0.0
19/11:30am 15.1 13.7 9.0 67 3.2 N 6 9 3 5 1020.2 1019.4 0.0
19/11:00am 14.8 13.7 8.3 65 3.4 N 4 13 2 7 1020.2 1019.4 0.0
19/10:30am 15.1 13.7 7.2 59 4.0 N 4 9 2 5 1020.2 1019.4 0.0
19/10:00am 14.6 12.8 7.2 61 3.8 NNW 6 11 3 6 1020.1 1019.3 0.0
19/09:30am 14.6 13.3 9.2 70 2.9 N 6 9 3 5 1020.0 1019.1 0.0
19/09:00am 13.9 13.0 9.3 74 2.4 N 4 9 2 5 1020.0 1019.1 5.2
19/08:30am 12.2 11.2 9.0 81 1.7 NNW 4 6 2 3 1019.8 1018.9 5.2
19/08:00am 11.3 10.9 9.9 91 0.7 NNE 2 6 1 3 1019.3 1018.4 5.2
19/07:30am 9.6 8.6 9.0 96 0.3 NNE 4 7 2 4 1018.8 1018.0 5.2
19/07:00am 7.8 7.1 6.9 94 0.4 CALM 0 6 0 3 1018.3 1017.4 5.2
19/06:30am 8.8 8.3 8.0 95 0.4 CALM 0 4 0 2 1017.6 1016.7 5.2
19/06:00am 9.8 9.6 9.2 96 0.3 CALM 0 0 0 0 1017.0 1016.1 5.2
19/05:30am 9.9 9.3 9.1 95 0.4 NNE 2 6 1 3 1016.6 1015.7 5.2
19/05:00am 10.7 9.9 9.8 94 0.5 NE 4 7 2 4 1016.2 1015.2 5.2
19/04:30am 11.3 10.3 10.4 94 0.5 NNW 6 13 3 7 1015.6 1014.7 5.2
19/04:00am 10.9 10.2 10.0 94 0.5 NNW 4 11 2 6 1015.4 1014.5 5.2
19/03:30am 10.2 10.0 9.1 93 0.6 CALM 0 0 0 0 1015.2 1014.3 5.2
19/03:00am 11.5 11.7 10.7 95 0.4 CALM 0 0 0 0 1015.1 1014.2 5.0
19/02:30am 10.8 10.6 9.1 89 0.9 CALM 0 0 0 0 1015.3 1014.4 5.0
19/02:00am 12.4 12.7 10.8 90 0.9 CALM 0 0 0 0 1015.4 1014.5 5.0
19/01:30am 13.6 14.3 12.2 91 0.8 CALM 0 0 0 0 1015.4 1014.5 5.0
19/01:00am 13.8 14.6 12.5 92 0.7 CALM 0 0 0 0 1015.2 1014.3 5.0
19/12:30am 13.6 13.5 12.2 91 0.8 NNW 4 9 2 5 1015.1 1014.2 5.0
19/12:00am 13.4 13.0 12.3 93 0.6 NNW 6 9 3 5 1015.1 1014.2 5.0
 
Date/Time
EST
Tmp

°C
App
Tmp
°C
Dew
Point
°C
Rel
Hum
%
Delta-T

°C
Wind Press
QNH
hPa
Press
MSL
hPa
Rain
since
9 am
mm
Dir
 
Spd
km/h
Gust
km/h
Spd
kts
Gust
kts
18/11:30pm 13.3 13.9 11.9 91 0.8 CALM 0 0 0 0 1014.6 1013.6 5.0
18/11:00pm 14.2 13.4 12.8 91 0.8 NW 9 15 5 8 1014.6 1013.6 5.0
18/10:30pm 14.2 13.4 12.9 92 0.7 NNW 9 19 5 10 1015.1 1014.2 5.0
18/10:00pm 14.1 12.9 12.7 91 0.8 NW 11 19 6 10 1014.9 1013.9 5.0

Latest Capital City Observations: Canberra | Sydney | Melbourne | Brisbane | Adelaide | Perth | Hobart | Darwin

Other Formats:

Comma delimited format used in spreadsheet applications
http://www.bom.gov.au/fwo/IDN60903/IDN60903.94927.axf

JavaScript Object Notation format (JSON) in row-major order
http://www.bom.gov.au/fwo/IDN60903/IDN60903.94927.json